sensor_id;sensor_type;location;lat;lon;timestamp;temperature;humidity
20732;DHT22;10527;52.124;5.196;2023-07-20T00:01:52;17.40;99.90
20732;DHT22;10527;52.124;5.196;2023-07-20T00:04:19;17.40;99.90
20732;DHT22;10527;52.124;5.196;2023-07-20T00:06:46;17.40;99.90
20732;DHT22;10527;52.124;5.196;2023-07-20T00:09:15;17.30;99.90
20732;DHT22;10527;52.124;5.196;2023-07-20T00:11:49;17.20;99.90
20732;DHT22;10527;52.124;5.196;2023-07-20T00:14:20;17.30;99.90
20732;DHT22;10527;52.124;5.196;2023-07-20T00:16:49;17.30;99.90
20732;DHT22;10527;52.124;5.196;2023-07-20T00:19:27;17.20;99.90
20732;DHT22;10527;52.124;5.196;2023-07-20T00:21:55;17.30;99.90
20732;DHT22;10527;52.124;5.196;2023-07-20T00:24:23;17.30;99.90
20732;DHT22;10527;52.124;5.196;2023-07-20T00:26:52;17.20;99.90
20732;DHT22;10527;52.124;5.196;2023-07-20T00:29:18;17.20;99.90
20732;DHT22;10527;52.124;5.196;2023-07-20T00:31:45;17.20;99.90
20732;DHT22;10527;52.124;5.196;2023-07-20T00:34:13;17.20;99.90
20732;DHT22;10527;52.124;5.196;2023-07-20T00:36:40;17.10;99.90
20732;DHT22;10527;52.124;5.196;2023-07-20T00:39:08;17.10;99.90
20732;DHT22;10527;52.124;5.196;2023-07-20T00:41:34;17.20;99.90
20732;DHT22;10527;52.124;5.196;2023-07-20T00:44:05;17.10;99.90
20732;DHT22;10527;52.124;5.196;2023-07-20T00:46:32;17.00;99.90
20732;DHT22;10527;52.124;5.196;2023-07-20T00:49:00;16.90;99.90
20732;DHT22;10527;52.124;5.196;2023-07-20T00:51:28;16.90;99.90
20732;DHT22;10527;52.124;5.196;2023-07-20T00:53:55;16.90;99.90
20732;DHT22;10527;52.124;5.196;2023-07-20T00:56:22;16.90;99.90
20732;DHT22;10527;52.124;5.196;2023-07-20T00:58:50;16.90;99.90
20732;DHT22;10527;52.124;5.196;2023-07-20T01:01:18;16.90;99.90
20732;DHT22;10527;52.124;5.196;2023-07-20T01:03:45;17.00;99.90
20732;DHT22;10527;52.124;5.196;2023-07-20T01:06:41;17.10;99.90
20732;DHT22;10527;52.124;5.196;2023-07-20T01:12:30;16.80;99.90
20732;DHT22;10527;52.124;5.196;2023-07-20T01:15:02;16.80;99.90
20732;DHT22;10527;52.124;5.196;2023-07-20T01:17:30;16.70;99.90
20732;DHT22;10527;52.124;5.196;2023-07-20T01:19:56;16.70;99.90
20732;DHT22;10527;52.124;5.196;2023-07-20T01:22:42;16.70;99.90
20732;DHT22;10527;52.124;5.196;2023-07-20T01:28:45;16.70;99.90
20732;DHT22;10527;52.124;5.196;2023-07-20T01:31:34;16.70;99.90
20732;DHT22;10527;52.124;5.196;2023-07-20T01:34:06;16.70;99.90
20732;DHT22;10527;52.124;5.196;2023-07-20T01:36:36;16.70;99.90
20732;DHT22;10527;52.124;5.196;2023-07-20T01:39:06;16.80;99.90
20732;DHT22;10527;52.124;5.196;2023-07-20T01:41:37;16.70;99.90
20732;DHT22;10527;52.124;5.196;2023-07-20T01:44:05;16.70;99.90
20732;DHT22;10527;52.124;5.196;2023-07-20T01:46:32;16.70;99.90
20732;DHT22;10527;52.124;5.196;2023-07-20T01:48:59;16.60;99.90
20732;DHT22;10527;52.124;5.196;2023-07-20T01:51:26;16.60;99.90
20732;DHT22;10527;52.124;5.196;2023-07-20T01:53:53;16.50;99.90
20732;DHT22;10527;52.124;5.196;2023-07-20T01:56:20;16.50;99.90
20732;DHT22;10527;52.124;5.196;2023-07-20T01:58:47;16.40;99.90
20732;DHT22;10527;52.124;5.196;2023-07-20T02:01:14;16.40;99.90
20732;DHT22;10527;52.124;5.196;2023-07-20T02:03:41;16.50;99.90
20732;DHT22;10527;52.124;5.196;2023-07-20T02:06:08;16.40;99.90
20732;DHT22;10527;52.124;5.196;2023-07-20T02:08:35;16.60;99.90
20732;DHT22;10527;52.124;5.196;2023-07-20T02:11:02;16.60;99.90
20732;DHT22;10527;52.124;5.196;2023-07-20T02:13:31;16.60;99.90
20732;DHT22;10527;52.124;5.196;2023-07-20T02:15:58;16.60;99.90
20732;DHT22;10527;52.124;5.196;2023-07-20T02:18:25;16.60;99.90
20732;DHT22;10527;52.124;5.196;2023-07-20T02:20:53;16.50;99.90
20732;DHT22;10527;52.124;5.196;2023-07-20T02:23:20;16.50;99.90
20732;DHT22;10527;52.124;5.196;2023-07-20T02:25:47;16.50;99.90
20732;DHT22;10527;52.124;5.196;2023-07-20T02:28:15;16.50;99.90
20732;DHT22;10527;52.124;5.196;2023-07-20T02:30:42;16.40;99.90
20732;DHT22;10527;52.124;5.196;2023-07-20T02:33:08;16.50;99.90
20732;DHT22;10527;52.124;5.196;2023-07-20T02:35:35;16.60;99.90
20732;DHT22;10527;52.124;5.196;2023-07-20T02:38:02;16.60;99.90
20732;DHT22;10527;52.124;5.196;2023-07-20T02:40:30;16.60;99.90
20732;DHT22;10527;52.124;5.196;2023-07-20T02:42:57;16.60;99.90
20732;DHT22;10527;52.124;5.196;2023-07-20T02:45:24;16.70;99.90
20732;DHT22;10527;52.124;5.196;2023-07-20T02:47:50;16.60;99.90
20732;DHT22;10527;52.124;5.196;2023-07-20T02:50:18;16.70;99.90
20732;DHT22;10527;52.124;5.196;2023-07-20T02:52:44;16.60;99.90
20732;DHT22;10527;52.124;5.196;2023-07-20T02:55:12;16.60;99.90
20732;DHT22;10527;52.124;5.196;2023-07-20T02:57:38;16.80;99.90
20732;DHT22;10527;52.124;5.196;2023-07-20T03:00:06;16.80;99.90
20732;DHT22;10527;52.124;5.196;2023-07-20T03:02:33;16.70;99.90
20732;DHT22;10527;52.124;5.196;2023-07-20T03:05:01;16.60;99.90
20732;DHT22;10527;52.124;5.196;2023-07-20T03:07:29;16.60;99.90
20732;DHT22;10527;52.124;5.196;2023-07-20T03:09:56;16.60;99.90
20732;DHT22;10527;52.124;5.196;2023-07-20T03:12:23;16.60;99.90
20732;DHT22;10527;52.124;5.196;2023-07-20T03:14:52;16.60;99.90
20732;DHT22;10527;52.124;5.196;2023-07-20T03:17:20;16.60;99.90
20732;DHT22;10527;52.124;5.196;2023-07-20T03:19:47;16.60;99.90
20732;DHT22;10527;52.124;5.196;2023-07-20T03:22:14;16.60;99.90
20732;DHT22;10527;52.124;5.196;2023-07-20T03:24:41;16.60;99.90
20732;DHT22;10527;52.124;5.196;2023-07-20T03:27:08;16.60;99.90
20732;DHT22;10527;52.124;5.196;2023-07-20T03:29:35;16.60;99.90
20732;DHT22;10527;52.124;5.196;2023-07-20T03:32:02;16.60;99.90
20732;DHT22;10527;52.124;5.196;2023-07-20T03:34:29;16.60;99.90
20732;DHT22;10527;52.124;5.196;2023-07-20T03:36:56;16.70;99.90
20732;DHT22;10527;52.124;5.196;2023-07-20T03:39:23;16.60;99.90
20732;DHT22;10527;52.124;5.196;2023-07-20T03:41:50;16.60;99.90
20732;DHT22;10527;52.124;5.196;2023-07-20T03:44:17;16.60;99.90
20732;DHT22;10527;52.124;5.196;2023-07-20T03:46:47;16.50;99.90
20732;DHT22;10527;52.124;5.196;2023-07-20T03:49:14;16.50;99.90
20732;DHT22;10527;52.124;5.196;2023-07-20T03:51:41;16.60;99.90
20732;DHT22;10527;52.124;5.196;2023-07-20T03:54:08;16.50;99.90
20732;DHT22;10527;52.124;5.196;2023-07-20T03:56:35;16.50;99.90
20732;DHT22;10527;52.124;5.196;2023-07-20T03:59:02;16.60;99.90
20732;DHT22;10527;52.124;5.196;2023-07-20T04:01:29;16.50;99.90
20732;DHT22;10527;52.124;5.196;2023-07-20T04:03:59;16.50;99.90
20732;DHT22;10527;52.124;5.196;2023-07-20T04:06:25;16.50;99.90
20732;DHT22;10527;52.124;5.196;2023-07-20T04:08:52;16.50;99.90
20732;DHT22;10527;52.124;5.196;2023-07-20T04:11:19;16.50;99.90
20732;DHT22;10527;52.124;5.196;2023-07-20T04:13:46;16.40;99.90
20732;DHT22;10527;52.124;5.196;2023-07-20T04:16:13;16.40;99.90
20732;DHT22;10527;52.124;5.196;2023-07-20T04:18:41;16.40;99.90
20732;DHT22;10527;52.124;5.196;2023-07-20T04:21:08;16.30;99.90
20732;DHT22;10527;52.124;5.196;2023-07-20T04:23:35;16.30;99.90
20732;DHT22;10527;52.124;5.196;2023-07-20T04:26:03;16.30;99.90
20732;DHT22;10527;52.124;5.196;2023-07-20T04:28:30;16.30;99.90
20732;DHT22;10527;52.124;5.196;2023-07-20T04:31:10;16.20;99.90
20732;DHT22;10527;52.124;5.196;2023-07-20T04:33:46;16.20;99.90
20732;DHT22;10527;52.124;5.196;2023-07-20T04:36:13;16.20;99.90
20732;DHT22;10527;52.124;5.196;2023-07-20T04:38:44;16.10;99.90
20732;DHT22;10527;52.124;5.196;2023-07-20T04:41:10;16.20;99.90
20732;DHT22;10527;52.124;5.196;2023-07-20T04:43:42;16.10;99.90
20732;DHT22;10527;52.124;5.196;2023-07-20T04:46:11;16.10;99.90
20732;DHT22;10527;52.124;5.196;2023-07-20T04:48:38;16.00;99.90
20732;DHT22;10527;52.124;5.196;2023-07-20T04:51:07;16.00;99.90
20732;DHT22;10527;52.124;5.196;2023-07-20T04:53:34;16.00;99.90
20732;DHT22;10527;52.124;5.196;2023-07-20T04:56:00;16.10;99.90
20732;DHT22;10527;52.124;5.196;2023-07-20T04:58:27;16.10;99.90
20732;DHT22;10527;52.124;5.196;2023-07-20T05:00:54;16.00;99.90
20732;DHT22;10527;52.124;5.196;2023-07-20T05:03:21;16.00;99.90
20732;DHT22;10527;52.124;5.196;2023-07-20T05:05:48;16.00;99.90
20732;DHT22;10527;52.124;5.196;2023-07-20T05:08:16;15.90;99.90
20732;DHT22;10527;52.124;5.196;2023-07-20T05:10:43;15.90;99.90
20732;DHT22;10527;52.124;5.196;2023-07-20T05:13:10;15.90;99.90
20732;DHT22;10527;52.124;5.196;2023-07-20T05:15:37;15.80;99.90
20732;DHT22;10527;52.124;5.196;2023-07-20T05:18:04;15.80;99.90
20732;DHT22;10527;52.124;5.196;2023-07-20T05:20:31;15.90;99.90
20732;DHT22;10527;52.124;5.196;2023-07-20T05:22:59;15.90;99.90
20732;DHT22;10527;52.124;5.196;2023-07-20T05:25:27;16.00;99.90
20732;DHT22;10527;52.124;5.196;2023-07-20T05:27:57;16.00;99.90
20732;DHT22;10527;52.124;5.196;2023-07-20T05:30:24;16.00;99.90
20732;DHT22;10527;52.124;5.196;2023-07-20T05:32:51;16.00;99.90
20732;DHT22;10527;52.124;5.196;2023-07-20T05:35:19;16.00;99.90
20732;DHT22;10527;52.124;5.196;2023-07-20T05:37:46;16.10;99.90
20732;DHT22;10527;52.124;5.196;2023-07-20T05:40:14;16.00;99.90
20732;DHT22;10527;52.124;5.196;2023-07-20T05:42:46;16.00;99.90
20732;DHT22;10527;52.124;5.196;2023-07-20T05:45:15;16.00;99.90
20732;DHT22;10527;52.124;5.196;2023-07-20T05:47:42;16.00;99.90
20732;DHT22;10527;52.124;5.196;2023-07-20T05:50:10;15.90;99.90
20732;DHT22;10527;52.124;5.196;2023-07-20T05:52:37;16.00;99.90
20732;DHT22;10527;52.124;5.196;2023-07-20T05:55:06;16.00;99.90
20732;DHT22;10527;52.124;5.196;2023-07-20T05:57:33;16.00;99.90
20732;DHT22;10527;52.124;5.196;2023-07-20T06:00:01;16.00;99.90
20732;DHT22;10527;52.124;5.196;2023-07-20T06:02:29;16.10;99.90
20732;DHT22;10527;52.124;5.196;2023-07-20T06:04:56;16.10;99.90
20732;DHT22;10527;52.124;5.196;2023-07-20T06:07:24;16.20;99.90
20732;DHT22;10527;52.124;5.196;2023-07-20T06:09:51;16.20;99.90
20732;DHT22;10527;52.124;5.196;2023-07-20T06:12:18;16.20;99.90
20732;DHT22;10527;52.124;5.196;2023-07-20T06:14:44;16.20;99.90
20732;DHT22;10527;52.124;5.196;2023-07-20T06:17:11;16.20;99.90
20732;DHT22;10527;52.124;5.196;2023-07-20T06:19:38;16.30;99.90
20732;DHT22;10527;52.124;5.196;2023-07-20T06:22:05;16.30;99.90
20732;DHT22;10527;52.124;5.196;2023-07-20T06:24:32;16.30;99.90
20732;DHT22;10527;52.124;5.196;2023-07-20T06:26:59;16.30;99.90
20732;DHT22;10527;52.124;5.196;2023-07-20T06:29:26;16.30;99.90
20732;DHT22;10527;52.124;5.196;2023-07-20T06:31:52;16.40;99.90
20732;DHT22;10527;52.124;5.196;2023-07-20T06:34:19;16.40;99.90
20732;DHT22;10527;52.124;5.196;2023-07-20T06:36:49;16.50;99.90
20732;DHT22;10527;52.124;5.196;2023-07-20T06:39:19;16.50;99.90
20732;DHT22;10527;52.124;5.196;2023-07-20T06:41:49;16.50;99.90
20732;DHT22;10527;52.124;5.196;2023-07-20T06:44:22;16.60;99.90
20732;DHT22;10527;52.124;5.196;2023-07-20T06:46:49;16.60;99.90
20732;DHT22;10527;52.124;5.196;2023-07-20T06:49:26;16.60;99.90
20732;DHT22;10527;52.124;5.196;2023-07-20T06:51:54;16.70;99.90
20732;DHT22;10527;52.124;5.196;2023-07-20T06:54:21;16.70;99.90
20732;DHT22;10527;52.124;5.196;2023-07-20T06:56:50;16.80;99.90
20732;DHT22;10527;52.124;5.196;2023-07-20T06:59:37;16.80;99.90
20732;DHT22;10527;52.124;5.196;2023-07-20T07:02:07;16.90;99.90
20732;DHT22;10527;52.124;5.196;2023-07-20T07:04:40;16.90;99.90
20732;DHT22;10527;52.124;5.196;2023-07-20T07:07:08;16.90;99.90
20732;DHT22;10527;52.124;5.196;2023-07-20T07:09:36;16.90;99.90
20732;DHT22;10527;52.124;5.196;2023-07-20T07:12:04;16.90;99.90
20732;DHT22;10527;52.124;5.196;2023-07-20T07:14:31;16.90;99.90
20732;DHT22;10527;52.124;5.196;2023-07-20T07:16:59;17.00;99.90
20732;DHT22;10527;52.124;5.196;2023-07-20T07:19:30;17.00;99.90
20732;DHT22;10527;52.124;5.196;2023-07-20T07:21:57;17.10;99.90
20732;DHT22;10527;52.124;5.196;2023-07-20T07:24:26;17.10;99.90
20732;DHT22;10527;52.124;5.196;2023-07-20T07:26:55;17.10;99.90
20732;DHT22;10527;52.124;5.196;2023-07-20T07:29:22;17.10;99.90
20732;DHT22;10527;52.124;5.196;2023-07-20T07:31:49;17.10;99.90
20732;DHT22;10527;52.124;5.196;2023-07-20T07:34:16;17.20;99.90
20732;DHT22;10527;52.124;5.196;2023-07-20T07:36:43;17.10;99.90
20732;DHT22;10527;52.124;5.196;2023-07-20T07:39:10;17.10;99.90
20732;DHT22;10527;52.124;5.196;2023-07-20T07:41:40;17.10;99.90
20732;DHT22;10527;52.124;5.196;2023-07-20T07:44:07;17.10;99.90
20732;DHT22;10527;52.124;5.196;2023-07-20T07:46:34;17.20;99.90
20732;DHT22;10527;52.124;5.196;2023-07-20T07:49:01;17.30;99.90
20732;DHT22;10527;52.124;5.196;2023-07-20T07:51:28;17.40;99.90
20732;DHT22;10527;52.124;5.196;2023-07-20T07:53:55;17.50;99.90
20732;DHT22;10527;52.124;5.196;2023-07-20T07:56:21;17.60;99.90
20732;DHT22;10527;52.124;5.196;2023-07-20T07:58:51;17.60;99.90
20732;DHT22;10527;52.124;5.196;2023-07-20T08:01:20;17.80;99.90
20732;DHT22;10527;52.124;5.196;2023-07-20T08:03:47;18.10;99.90
20732;DHT22;10527;52.124;5.196;2023-07-20T08:06:14;18.40;99.90
20732;DHT22;10527;52.124;5.196;2023-07-20T08:08:42;18.60;99.90
20732;DHT22;10527;52.124;5.196;2023-07-20T08:11:09;18.90;99.90
20732;DHT22;10527;52.124;5.196;2023-07-20T08:13:38;19.10;99.90
20732;DHT22;10527;52.124;5.196;2023-07-20T08:16:04;19.20;99.90
20732;DHT22;10527;52.124;5.196;2023-07-20T08:18:31;19.50;99.90
20732;DHT22;10527;52.124;5.196;2023-07-20T08:20:59;19.70;99.90
20732;DHT22;10527;52.124;5.196;2023-07-20T08:23:26;19.70;99.90
20732;DHT22;10527;52.124;5.196;2023-07-20T08:25:54;20.10;99.90
20732;DHT22;10527;52.124;5.196;2023-07-20T08:28:21;20.10;99.90
20732;DHT22;10527;52.124;5.196;2023-07-20T08:30:49;20.20;99.90
20732;DHT22;10527;52.124;5.196;2023-07-20T08:33:17;20.60;99.90
20732;DHT22;10527;52.124;5.196;2023-07-20T08:35:46;20.70;99.90
20732;DHT22;10527;52.124;5.196;2023-07-20T08:38:13;20.20;99.90
20732;DHT22;10527;52.124;5.196;2023-07-20T08:40:42;20.20;99.90
20732;DHT22;10527;52.124;5.196;2023-07-20T08:43:11;20.00;99.90
20732;DHT22;10527;52.124;5.196;2023-07-20T08:45:40;20.30;99.90
20732;DHT22;10527;52.124;5.196;2023-07-20T08:48:08;20.80;99.90
20732;DHT22;10527;52.124;5.196;2023-07-20T08:50:36;21.20;99.90
20732;DHT22;10527;52.124;5.196;2023-07-20T08:53:05;21.50;99.90
20732;DHT22;10527;52.124;5.196;2023-07-20T08:55:34;21.50;99.90
20732;DHT22;10527;52.124;5.196;2023-07-20T08:58:05;21.60;99.90
20732;DHT22;10527;52.124;5.196;2023-07-20T09:00:37;21.20;99.90
20732;DHT22;10527;52.124;5.196;2023-07-20T09:03:05;21.70;99.90
20732;DHT22;10527;52.124;5.196;2023-07-20T09:05:33;21.60;99.90
20732;DHT22;10527;52.124;5.196;2023-07-20T09:08:02;22.00;99.90
20732;DHT22;10527;52.124;5.196;2023-07-20T09:10:31;22.10;99.90
20732;DHT22;10527;52.124;5.196;2023-07-20T09:12:58;21.90;99.90
20732;DHT22;10527;52.124;5.196;2023-07-20T09:15:25;21.40;99.90
20732;DHT22;10527;52.124;5.196;2023-07-20T09:17:53;21.20;99.90
20732;DHT22;10527;52.124;5.196;2023-07-20T09:20:21;21.60;99.90
20732;DHT22;10527;52.124;5.196;2023-07-20T09:22:50;21.70;99.90
20732;DHT22;10527;52.124;5.196;2023-07-20T09:25:19;22.20;99.90
20732;DHT22;10527;52.124;5.196;2023-07-20T09:27:48;22.30;99.90
20732;DHT22;10527;52.124;5.196;2023-07-20T09:30:18;22.40;99.90
20732;DHT22;10527;52.124;5.196;2023-07-20T09:32:47;22.40;99.90
20732;DHT22;10527;52.124;5.196;2023-07-20T09:35:22;22.40;99.90
20732;DHT22;10527;52.124;5.196;2023-07-20T09:38:01;22.30;99.90
20732;DHT22;10527;52.124;5.196;2023-07-20T09:40:37;22.60;99.90
20732;DHT22;10527;52.124;5.196;2023-07-20T09:43:09;22.60;99.90
20732;DHT22;10527;52.124;5.196;2023-07-20T09:45:43;22.80;99.90
20732;DHT22;10527;52.124;5.196;2023-07-20T09:48:12;22.80;99.90
20732;DHT22;10527;52.124;5.196;2023-07-20T09:50:48;23.00;99.90
20732;DHT22;10527;52.124;5.196;2023-07-20T09:53:17;23.20;99.90
20732;DHT22;10527;52.124;5.196;2023-07-20T09:55:46;22.60;99.90
20732;DHT22;10527;52.124;5.196;2023-07-20T09:58:14;22.00;99.90
20732;DHT22;10527;52.124;5.196;2023-07-20T10:00:43;22.20;99.90
20732;DHT22;10527;52.124;5.196;2023-07-20T10:03:20;22.20;99.90
20732;DHT22;10527;52.124;5.196;2023-07-20T10:06:02;22.30;99.90
20732;DHT22;10527;52.124;5.196;2023-07-20T10:08:39;22.20;99.90
20732;DHT22;10527;52.124;5.196;2023-07-20T10:11:11;22.50;99.90
20732;DHT22;10527;52.124;5.196;2023-07-20T10:13:41;22.20;99.90
20732;DHT22;10527;52.124;5.196;2023-07-20T10:16:20;22.30;99.90
20732;DHT22;10527;52.124;5.196;2023-07-20T10:18:53;22.70;99.90
20732;DHT22;10527;52.124;5.196;2023-07-20T10:21:26;23.00;99.90
20732;DHT22;10527;52.124;5.196;2023-07-20T10:23:59;23.00;99.90
20732;DHT22;10527;52.124;5.196;2023-07-20T10:26:27;22.10;99.90
20732;DHT22;10527;52.124;5.196;2023-07-20T10:28:56;22.10;99.90
20732;DHT22;10527;52.124;5.196;2023-07-20T10:31:24;22.30;99.90
20732;DHT22;10527;52.124;5.196;2023-07-20T10:33:57;22.30;99.90
20732;DHT22;10527;52.124;5.196;2023-07-20T10:36:25;22.30;99.90
20732;DHT22;10527;52.124;5.196;2023-07-20T10:38:57;22.30;99.90
20732;DHT22;10527;52.124;5.196;2023-07-20T10:41:35;22.10;99.90
20732;DHT22;10527;52.124;5.196;2023-07-20T10:44:07;22.20;99.90
20732;DHT22;10527;52.124;5.196;2023-07-20T10:49:07;22.60;99.90
20732;DHT22;10527;52.124;5.196;2023-07-20T10:51:46;22.90;99.90
20732;DHT22;10527;52.124;5.196;2023-07-20T10:56:47;22.50;99.90
20732;DHT22;10527;52.124;5.196;2023-07-20T11:01:55;22.30;99.90
20732;DHT22;10527;52.124;5.196;2023-07-20T11:04:43;22.40;99.90
20732;DHT22;10527;52.124;5.196;2023-07-20T11:07:16;22.30;99.90
20732;DHT22;10527;52.124;5.196;2023-07-20T11:09:44;22.20;99.90
20732;DHT22;10527;52.124;5.196;2023-07-20T11:12:18;22.00;99.90
20732;DHT22;10527;52.124;5.196;2023-07-20T11:14:56;22.20;99.90
20732;DHT22;10527;52.124;5.196;2023-07-20T11:17:31;22.30;99.90
20732;DHT22;10527;52.124;5.196;2023-07-20T11:20:02;22.20;99.90
20732;DHT22;10527;52.124;5.196;2023-07-20T11:22:33;22.10;99.90
20732;DHT22;10527;52.124;5.196;2023-07-20T11:25:00;22.40;99.90
20732;DHT22;10527;52.124;5.196;2023-07-20T11:27:27;22.60;99.90
20732;DHT22;10527;52.124;5.196;2023-07-20T11:29:55;22.70;99.90
20732;DHT22;10527;52.124;5.196;2023-07-20T11:32:23;22.70;99.90
20732;DHT22;10527;52.124;5.196;2023-07-20T11:34:51;22.80;99.90
20732;DHT22;10527;52.124;5.196;2023-07-20T11:37:18;22.90;99.90
20732;DHT22;10527;52.124;5.196;2023-07-20T11:39:46;23.30;99.90
20732;DHT22;10527;52.124;5.196;2023-07-20T11:42:13;23.30;99.90
20732;DHT22;10527;52.124;5.196;2023-07-20T11:45:05;23.50;99.90
20732;DHT22;10527;52.124;5.196;2023-07-20T11:47:33;23.20;99.90
20732;DHT22;10527;52.124;5.196;2023-07-20T11:50:03;23.40;99.90
20732;DHT22;10527;52.124;5.196;2023-07-20T11:52:31;23.20;99.90
20732;DHT22;10527;52.124;5.196;2023-07-20T11:54:58;23.50;99.90
20732;DHT22;10527;52.124;5.196;2023-07-20T11:57:26;23.50;99.90
20732;DHT22;10527;52.124;5.196;2023-07-20T11:59:57;23.30;99.90
20732;DHT22;10527;52.124;5.196;2023-07-20T12:02:28;23.50;99.90
20732;DHT22;10527;52.124;5.196;2023-07-20T12:04:56;23.40;99.90
20732;DHT22;10527;52.124;5.196;2023-07-20T12:07:26;23.50;99.90
20732;DHT22;10527;52.124;5.196;2023-07-20T12:10:13;23.80;99.90
20732;DHT22;10527;52.124;5.196;2023-07-20T12:12:43;23.60;99.90
20732;DHT22;10527;52.124;5.196;2023-07-20T12:15:24;23.50;99.90
20732;DHT22;10527;52.124;5.196;2023-07-20T12:17:58;23.10;99.90
20732;DHT22;10527;52.124;5.196;2023-07-20T12:20:27;22.80;99.90
20732;DHT22;10527;52.124;5.196;2023-07-20T12:23:10;22.80;99.90
20732;DHT22;10527;52.124;5.196;2023-07-20T12:25:45;23.00;99.90
20732;DHT22;10527;52.124;5.196;2023-07-20T12:28:16;22.70;99.90
20732;DHT22;10527;52.124;5.196;2023-07-20T12:30:45;22.70;99.90
20732;DHT22;10527;52.124;5.196;2023-07-20T12:33:13;22.50;99.90
20732;DHT22;10527;52.124;5.196;2023-07-20T12:35:44;22.50;99.90
20732;DHT22;10527;52.124;5.196;2023-07-20T12:38:13;22.50;99.90
20732;DHT22;10527;52.124;5.196;2023-07-20T12:40:40;22.20;99.90
20732;DHT22;10527;52.124;5.196;2023-07-20T12:43:07;22.20;99.90
20732;DHT22;10527;52.124;5.196;2023-07-20T12:45:34;22.10;99.90
20732;DHT22;10527;52.124;5.196;2023-07-20T12:48:01;22.20;99.90
20732;DHT22;10527;52.124;5.196;2023-07-20T12:50:28;22.20;99.90
20732;DHT22;10527;52.124;5.196;2023-07-20T12:52:55;22.20;99.90
20732;DHT22;10527;52.124;5.196;2023-07-20T12:55:22;21.90;99.90
20732;DHT22;10527;52.124;5.196;2023-07-20T12:57:49;22.20;99.90
20732;DHT22;10527;52.124;5.196;2023-07-20T13:00:16;22.30;99.90
20732;DHT22;10527;52.124;5.196;2023-07-20T13:02:43;22.60;99.90
20732;DHT22;10527;52.124;5.196;2023-07-20T13:05:10;22.80;99.90
20732;DHT22;10527;52.124;5.196;2023-07-20T13:07:38;22.70;99.90
20732;DHT22;10527;52.124;5.196;2023-07-20T13:10:10;22.80;99.90
20732;DHT22;10527;52.124;5.196;2023-07-20T13:12:38;23.20;99.90
20732;DHT22;10527;52.124;5.196;2023-07-20T13:15:07;23.30;99.90
20732;DHT22;10527;52.124;5.196;2023-07-20T13:17:36;23.40;99.90
20732;DHT22;10527;52.124;5.196;2023-07-20T13:20:09;23.30;99.90
20732;DHT22;10527;52.124;5.196;2023-07-20T13:22:38;23.40;99.90
20732;DHT22;10527;52.124;5.196;2023-07-20T13:25:07;23.30;99.90
20732;DHT22;10527;52.124;5.196;2023-07-20T13:27:34;23.00;99.90
20732;DHT22;10527;52.124;5.196;2023-07-20T13:30:06;22.90;99.90
20732;DHT22;10527;52.124;5.196;2023-07-20T13:32:36;22.90;99.90
20732;DHT22;10527;52.124;5.196;2023-07-20T13:35:07;22.80;99.90
20732;DHT22;10527;52.124;5.196;2023-07-20T13:37:36;22.70;99.90
20732;DHT22;10527;52.124;5.196;2023-07-20T13:40:04;22.60;99.90
20732;DHT22;10527;52.124;5.196;2023-07-20T13:42:33;22.40;99.90
20732;DHT22;10527;52.124;5.196;2023-07-20T13:45:00;22.50;99.90
20732;DHT22;10527;52.124;5.196;2023-07-20T13:47:27;22.50;99.90
20732;DHT22;10527;52.124;5.196;2023-07-20T13:49:54;22.60;99.90
20732;DHT22;10527;52.124;5.196;2023-07-20T13:52:30;22.40;99.90
20732;DHT22;10527;52.124;5.196;2023-07-20T13:55:00;22.40;99.90
20732;DHT22;10527;52.124;5.196;2023-07-20T13:57:31;22.40;99.90
20732;DHT22;10527;52.124;5.196;2023-07-20T14:00:02;22.20;99.90
20732;DHT22;10527;52.124;5.196;2023-07-20T14:02:31;22.30;99.90
20732;DHT22;10527;52.124;5.196;2023-07-20T14:05:01;22.40;99.90
20732;DHT22;10527;52.124;5.196;2023-07-20T14:07:31;22.30;99.90
20732;DHT22;10527;52.124;5.196;2023-07-20T14:09:58;22.30;99.90
20732;DHT22;10527;52.124;5.196;2023-07-20T14:12:28;22.50;99.90
20732;DHT22;10527;52.124;5.196;2023-07-20T14:14:55;22.30;99.90
20732;DHT22;10527;52.124;5.196;2023-07-20T14:17:22;22.40;99.90
20732;DHT22;10527;52.124;5.196;2023-07-20T14:19:51;22.80;99.90
20732;DHT22;10527;52.124;5.196;2023-07-20T14:22:19;22.50;99.90
20732;DHT22;10527;52.124;5.196;2023-07-20T14:24:46;22.60;99.90
20732;DHT22;10527;52.124;5.196;2023-07-20T14:27:13;22.60;99.90
20732;DHT22;10527;52.124;5.196;2023-07-20T14:29:39;22.60;99.90
20732;DHT22;10527;52.124;5.196;2023-07-20T14:32:06;22.80;99.90
20732;DHT22;10527;52.124;5.196;2023-07-20T14:34:34;22.90;99.90
20732;DHT22;10527;52.124;5.196;2023-07-20T14:37:05;22.90;99.90
20732;DHT22;10527;52.124;5.196;2023-07-20T14:39:32;22.90;99.90
20732;DHT22;10527;52.124;5.196;2023-07-20T14:41:59;23.00;99.90
20732;DHT22;10527;52.124;5.196;2023-07-20T14:44:26;23.20;99.90
20732;DHT22;10527;52.124;5.196;2023-07-20T14:46:53;23.20;99.90
20732;DHT22;10527;52.124;5.196;2023-07-20T14:49:38;23.00;99.90
20732;DHT22;10527;52.124;5.196;2023-07-20T14:52:06;23.10;99.90
20732;DHT22;10527;52.124;5.196;2023-07-20T14:54:41;23.10;99.90
20732;DHT22;10527;52.124;5.196;2023-07-20T14:57:08;22.70;99.90
20732;DHT22;10527;52.124;5.196;2023-07-20T14:59:41;22.60;99.90
20732;DHT22;10527;52.124;5.196;2023-07-20T15:02:09;22.50;99.90
20732;DHT22;10527;52.124;5.196;2023-07-20T15:04:36;22.70;99.90
20732;DHT22;10527;52.124;5.196;2023-07-20T15:07:03;22.60;99.90
20732;DHT22;10527;52.124;5.196;2023-07-20T15:09:30;22.70;99.90
20732;DHT22;10527;52.124;5.196;2023-07-20T15:11:57;22.50;99.90
20732;DHT22;10527;52.124;5.196;2023-07-20T15:14:24;22.50;99.90
20732;DHT22;10527;52.124;5.196;2023-07-20T15:16:51;22.60;99.90
20732;DHT22;10527;52.124;5.196;2023-07-20T15:19:18;22.50;99.90
20732;DHT22;10527;52.124;5.196;2023-07-20T15:21:45;22.50;99.90
20732;DHT22;10527;52.124;5.196;2023-07-20T15:24:12;22.50;99.90
20732;DHT22;10527;52.124;5.196;2023-07-20T15:26:39;22.60;99.90
20732;DHT22;10527;52.124;5.196;2023-07-20T15:29:07;22.40;99.90
20732;DHT22;10527;52.124;5.196;2023-07-20T15:31:54;22.40;99.90
20732;DHT22;10527;52.124;5.196;2023-07-20T15:34:24;22.60;99.90
20732;DHT22;10527;52.124;5.196;2023-07-20T15:36:51;22.40;99.90
20732;DHT22;10527;52.124;5.196;2023-07-20T15:39:19;22.50;99.90
20732;DHT22;10527;52.124;5.196;2023-07-20T15:41:47;22.40;99.90
20732;DHT22;10527;52.124;5.196;2023-07-20T15:44:14;22.50;99.90
20732;DHT22;10527;52.124;5.196;2023-07-20T15:49:08;22.60;99.90
20732;DHT22;10527;52.124;5.196;2023-07-20T15:51:36;22.50;99.90
20732;DHT22;10527;52.124;5.196;2023-07-20T15:54:04;22.50;99.90
20732;DHT22;10527;52.124;5.196;2023-07-20T15:56:39;22.20;99.90
20732;DHT22;10527;52.124;5.196;2023-07-20T15:59:13;22.30;99.90